Time;durP1;ratioP1;P1;durP2;ratioP2;P2;SDS_P1;SDS_P2;PMS_P1;PMS_P2;Temp;Humidity;BMP_temperature;BMP_pressure;BME280_temperature;BME280_humidity;BME280_pressure;Samples;Min_cycle;Max_cycle;Signal;HPM_P1;HPM_P2
2022/01/12 00:01:11;;;;;;;54.53;31.80;;;3.90;99.90;;;;;;5070384;28;20072;-70
2022/01/12 00:03:37;;;;;;;57.70;32.88;;;3.90;99.90;;;;;;5055175;28;20048;-70
2022/01/12 00:06:04;;;;;;;52.88;31.90;;;3.90;99.90;;;;;;5072015;28;20040;-72
2022/01/12 00:08:31;;;;;;;59.45;32.85;;;3.80;99.90;;;;;;5070392;28;20052;-71
2022/01/12 00:11:01;;;;;;;52.92;32.42;;;3.90;99.90;;;;;;5053568;28;20037;-69
2022/01/12 00:13:27;;;;;;;48.35;31.40;;;3.90;99.90;;;;;;5070820;28;20501;-70
2022/01/12 00:15:52;;;;;;;53.67;31.05;;;3.90;99.90;;;;;;5070094;28;20056;-71
2022/01/12 00:18:19;;;;;;;54.15;30.98;;;3.90;99.90;;;;;;5070698;28;20041;-68
2022/01/12 00:20:44;;;;;;;50.58;29.92;;;3.90;99.90;;;;;;5070681;28;20366;-71
2022/01/12 00:23:10;;;;;;;59.13;31.75;;;3.90;99.90;;;;;;5071016;28;20110;-71
2022/01/12 00:25:56;;;;;;;51.75;30.67;;;3.90;99.90;;;;;;5070725;28;20404;-71
2022/01/12 00:34:00;;;;;;;95.47;36.17;;;3.90;99.90;;;;;;5070660;28;20064;-70
2022/01/12 00:36:26;;;;;;;75.15;34.13;;;3.90;99.90;;;;;;5069409;28;20041;-70
2022/01/12 00:38:52;;;;;;;73.82;35.50;;;3.90;99.90;;;;;;5070505;28;20044;-71
2022/01/12 00:41:18;;;;;;;52.75;31.60;;;3.90;99.90;;;;;;5069279;28;20039;-71
2022/01/12 00:43:47;;;;;;;68.68;32.92;;;3.90;99.90;;;;;;5069931;28;20048;-72
2022/01/12 00:46:16;;;;;;;79.82;36.17;;;3.90;99.90;;;;;;5069249;28;20096;-71
2022/01/12 00:48:42;;;;;;;55.58;33.17;;;3.90;99.90;;;;;;5067228;28;20057;-72
2022/01/12 00:51:10;;;;;;;65.10;33.88;;;3.90;99.90;;;;;;5063022;28;20044;-69
2022/01/12 00:53:36;;;;;;;81.57;36.15;;;3.90;99.90;;;;;;5070104;28;20106;-71
2022/01/12 00:56:02;;;;;;;70.97;35.25;;;4.00;99.90;;;;;;5070188;28;20044;-72
2022/01/12 00:58:28;;;;;;;73.82;34.97;;;4.00;99.90;;;;;;5069230;28;20044;-70
2022/01/12 01:00:53;;;;;;;65.25;32.72;;;3.90;99.90;;;;;;5069848;28;20074;-72
2022/01/12 01:03:19;;;;;;;58.08;32.20;;;3.90;99.90;;;;;;5071277;28;20070;-71
2022/01/12 01:05:44;;;;;;;70.60;34.63;;;4.00;99.90;;;;;;5069112;28;20083;-71
2022/01/12 01:08:10;;;;;;;73.20;34.15;;;4.00;99.90;;;;;;5070102;28;20552;-71
2022/01/12 01:10:45;;;;;;;55.83;30.63;;;3.90;99.90;;;;;;5069716;28;20059;-71
2022/01/12 01:13:14;;;;;;;76.93;33.25;;;4.00;99.90;;;;;;5050044;28;20045;-71
2022/01/12 01:26:26;;;;;;;83.45;34.65;;;4.00;99.90;;;;;;5068710;28;20405;-70
2022/01/12 01:28:52;;;;;;;82.13;34.00;;;4.00;99.90;;;;;;5073577;28;20048;-71
2022/01/12 01:31:19;;;;;;;60.80;32.10;;;4.00;99.90;;;;;;5054722;28;20036;-70
2022/01/12 01:33:45;;;;;;;60.50;32.75;;;4.00;99.90;;;;;;5068919;28;20051;-72
2022/01/12 01:36:11;;;;;;;77.78;35.42;;;4.00;99.90;;;;;;5069139;28;20128;-71
2022/01/12 01:38:38;;;;;;;60.83;32.45;;;4.00;99.90;;;;;;5070683;28;20455;-70
2022/01/12 01:41:04;;;;;;;65.40;33.05;;;4.00;99.90;;;;;;5068600;28;20151;-70
2022/01/12 01:54:14;;;;;;;71.45;32.30;;;4.00;99.90;;;;;;5080484;28;20044;-71
2022/01/12 01:56:40;;;;;;;64.60;31.33;;;4.00;99.90;;;;;;5072813;28;20507;-72
2022/01/12 01:59:06;;;;;;;75.38;35.72;;;4.00;99.90;;;;;;5077009;28;20056;-71
2022/01/12 02:01:31;;;;;;;58.75;32.30;;;4.10;99.90;;;;;;5075677;28;20040;-71
2022/01/12 02:04:01;;;;;;;108.38;37.30;;;4.10;99.90;;;;;;5094057;28;20048;-69
2022/01/12 02:06:28;;;;;;;91.35;36.15;;;4.10;99.90;;;;;;5068813;28;20123;-72
2022/01/12 02:08:54;;;;;;;114.90;38.05;;;4.10;99.90;;;;;;5039654;28;20048;-72
2022/01/12 02:11:27;;;;;;;77.47;36.17;;;4.10;99.90;;;;;;5061458;28;20040;-72
2022/01/12 02:13:53;;;;;;;77.28;36.45;;;4.10;99.90;;;;;;5067847;28;20076;-71
2022/01/12 02:16:25;;;;;;;77.93;35.00;;;4.10;99.90;;;;;;5075406;28;20079;-72
2022/01/12 02:19:12;;;;;;;67.40;33.47;;;4.10;99.90;;;;;;5094552;28;20060;-72
2022/01/12 02:40:34;;;;;;;85.57;33.80;;;4.20;99.90;;;;;;5092891;28;20052;-71
2022/01/12 02:51:09;;;;;;;78.03;34.20;;;4.20;99.90;;;;;;5090559;28;20483;-69
2022/01/12 02:53:43;;;;;;;108.97;34.67;;;4.20;99.90;;;;;;5076023;28;20366;-71
2022/01/12 02:56:30;;;;;;;169.75;40.08;;;4.20;99.90;;;;;;5076473;28;20064;-71
2022/01/12 02:58:58;;;;;;;91.93;34.92;;;4.20;99.90;;;;;;5075483;28;20087;-71
2022/01/12 03:03:59;;;;;;;152.23;39.05;;;4.20;99.90;;;;;;5092695;28;20052;-68
2022/01/12 03:06:32;;;;;;;138.05;38.92;;;4.20;99.90;;;;;;5092146;28;20063;-71
2022/01/12 03:08:59;;;;;;;103.40;35.85;;;4.20;99.90;;;;;;5074366;28;20044;-70
2022/01/12 03:11:27;;;;;;;103.10;36.33;;;4.20;99.90;;;;;;5077588;28;20055;-70
2022/01/12 03:13:54;;;;;;;78.45;33.88;;;4.20;99.90;;;;;;5075489;28;20115;-67
2022/01/12 03:16:24;;;;;;;103.88;35.63;;;4.30;99.90;;;;;;5075275;28;20109;-70
2022/01/12 03:18:52;;;;;;;81.38;33.38;;;4.20;99.90;;;;;;5074215;28;20044;-66
2022/01/12 03:21:20;;;;;;;133.80;37.65;;;4.20;99.90;;;;;;5093313;28;20389;-70
2022/01/12 03:23:47;;;;;;;105.93;35.78;;;4.30;99.90;;;;;;5093313;28;20488;-70
2022/01/12 03:26:12;;;;;;;211.15;42.47;;;4.30;99.90;;;;;;5074424;28;20451;-70
2022/01/12 03:28:40;;;;;;;125.10;35.45;;;4.30;99.90;;;;;;5075955;28;20043;-70
2022/01/12 03:31:18;;;;;;;129.40;34.08;;;4.30;99.90;;;;;;5074499;28;20127;-71
2022/01/12 03:39:13;;;;;;;241.98;42.03;;;4.30;99.90;;;;;;5062063;28;20088;-72
2022/01/12 03:41:43;;;;;;;121.47;34.08;;;4.40;99.90;;;;;;5074433;28;20080;-72
2022/01/12 03:44:12;;;;;;;110.88;34.30;;;4.30;99.90;;;;;;5075314;28;20134;-69
2022/01/12 03:46:45;;;;;;;103.40;34.42;;;4.30;99.90;;;;;;5073634;28;20564;-72
2022/01/12 03:49:10;;;;;;;123.75;34.97;;;4.30;99.90;;;;;;5074772;28;20088;-72
2022/01/12 03:51:36;;;;;;;155.95;35.78;;;4.30;99.90;;;;;;5074588;28;20441;-70
2022/01/12 03:54:02;;;;;;;175.02;38.08;;;4.30;99.90;;;;;;5091086;28;20127;-72
2022/01/12 03:56:27;;;;;;;124.45;36.08;;;4.30;99.90;;;;;;5074256;28;20055;-71
2022/01/12 03:58:54;;;;;;;99.75;33.80;;;4.30;99.90;;;;;;5075032;28;20044;-71
2022/01/12 04:01:20;;;;;;;146.18;37.72;;;4.40;99.90;;;;;;5069978;28;20495;-71
2022/01/12 04:03:57;;;;;;;130.15;36.47;;;4.30;99.90;;;;;;5074629;28;20381;-70
2022/01/12 04:09:07;;;;;;;196.55;39.00;;;4.30;99.90;;;;;;5091165;28;20048;-71
2022/01/12 04:11:32;;;;;;;200.40;39.65;;;4.30;99.90;;;;;;5074320;28;20055;-71
2022/01/12 04:13:58;;;;;;;157.35;38.95;;;4.30;99.90;;;;;;5073277;28;20059;-70
2022/01/12 04:16:23;;;;;;;84.95;33.65;;;4.30;99.90;;;;;;5074042;28;20043;-70
2022/01/12 04:18:49;;;;;;;118.00;36.15;;;4.30;99.90;;;;;;5073919;28;20040;-71
2022/01/12 04:21:17;;;;;;;96.35;35.15;;;4.30;99.90;;;;;;5055151;28;20053;-71
2022/01/12 04:23:43;;;;;;;121.30;36.15;;;4.40;99.90;;;;;;5057742;28;20048;-71
2022/01/12 04:26:12;;;;;;;92.72;32.65;;;4.40;99.90;;;;;;5073818;28;20163;-70
2022/01/12 04:28:43;;;;;;;87.18;33.65;;;4.40;99.90;;;;;;5092178;28;20044;-70
2022/01/12 04:31:09;;;;;;;84.30;32.53;;;4.40;99.90;;;;;;5073081;28;20093;-70
2022/01/12 04:33:36;;;;;;;111.80;34.97;;;4.40;99.90;;;;;;5074086;28;20048;-71
2022/01/12 04:36:04;;;;;;;82.90;30.75;;;4.40;99.90;;;;;;5073159;28;20036;-70
2022/01/12 04:38:33;;;;;;;108.10;32.67;;;4.40;99.90;;;;;;5081078;28;20047;-71
2022/01/12 04:41:01;;;;;;;86.30;31.80;;;4.40;99.90;;;;;;5054666;28;20130;-70
2022/01/12 04:43:27;;;;;;;159.60;36.05;;;4.40;99.90;;;;;;5072905;28;20046;-70
2022/01/12 04:50:50;;;;;;;81.57;32.10;;;4.40;99.90;;;;;;5072465;28;20052;-72
2022/01/12 04:53:18;;;;;;;133.00;34.00;;;4.40;99.90;;;;;;5057084;28;20067;-72
2022/01/12 04:55:44;;;;;;;79.32;29.77;;;4.40;99.90;;;;;;5073226;28;20459;-72
2022/01/12 04:58:10;;;;;;;86.97;31.17;;;4.40;99.90;;;;;;5072088;28;20064;-71
2022/01/12 05:00:38;;;;;;;68.95;28.55;;;4.30;99.90;;;;;;5067569;28;20055;-70
2022/01/12 05:13:51;;;;;;;74.57;27.02;;;4.00;99.90;;;;;;5073260;28;20039;-71
2022/01/12 05:16:18;;;;;;;177.27;32.15;;;4.00;99.90;;;;;;5072916;28;20083;-71
2022/01/12 05:18:45;;;;;;;224.10;35.50;;;3.90;99.90;;;;;;5072515;28;20133;-70
2022/01/12 05:21:13;;;;;;;84.28;26.67;;;3.90;99.90;;;;;;5073412;28;20114;-71
2022/01/12 05:23:39;;;;;;;86.30;27.33;;;3.90;99.90;;;;;;5072202;28;20113;-70
2022/01/12 05:26:06;;;;;;;105.65;28.77;;;3.90;99.90;;;;;;5056143;28;20087;-71
2022/01/12 05:28:32;;;;;;;81.00;25.50;;;3.80;99.90;;;;;;5090530;28;20039;-71
2022/01/12 05:30:59;;;;;;;99.10;25.88;;;3.80;99.90;;;;;;5072653;28;20081;-71
2022/01/12 05:33:26;;;;;;;84.65;24.50;;;3.70;99.90;;;;;;5072555;28;20066;-71
2022/01/12 05:35:54;;;;;;;102.63;24.48;;;3.60;99.90;;;;;;5072263;28;20048;-71
2022/01/12 05:38:20;;;;;;;78.68;23.80;;;3.50;99.90;;;;;;5072005;28;20141;-71
2022/01/12 05:40:52;;;;;;;160.80;25.35;;;3.30;99.90;;;;;;5056323;28;20075;-71
2022/01/12 05:43:21;;;;;;;346.95;26.77;;;3.20;99.90;;;;;;5072554;28;20495;-71
2022/01/12 05:45:47;;;;;;;296.20;25.08;;;3.10;99.90;;;;;;5090038;28;20060;-71
2022/01/12 05:50:40;;;;;;;122.45;21.98;;;2.90;99.90;;;;;;5090831;28;20430;-72
2022/01/12 05:53:05;;;;;;;334.63;31.45;;;2.80;99.90;;;;;;5055400;28;20673;-72
2022/01/12 05:55:31;;;;;;;271.90;26.00;;;2.70;99.90;;;;;;5072723;28;20043;-74
2022/01/12 05:57:57;;;;;;;227.40;23.15;;;2.70;99.90;;;;;;5072614;28;20465;-72
2022/01/12 06:00:25;;;;;;;183.77;22.88;;;2.60;99.90;;;;;;5072036;28;20048;-72
2022/01/12 06:02:51;;;;;;;302.23;27.25;;;2.60;99.90;;;;;;5055405;28;20059;-73
2022/01/12 06:05:18;;;;;;;140.85;22.00;;;2.60;99.90;;;;;;5072311;28;20048;-73
2022/01/12 06:07:45;;;;;;;153.80;21.48;;;2.60;99.90;;;;;;5071010;28;20090;-71
2022/01/12 06:10:11;;;;;;;98.38;21.25;;;2.70;99.90;;;;;;5072521;28;20048;-73
2022/01/12 06:12:40;;;;;;;112.95;19.77;;;2.70;99.90;;;;;;5072531;28;20040;-70
2022/01/12 06:15:06;;;;;;;40.83;18.08;;;2.60;99.90;;;;;;5072507;28;20139;-72
2022/01/12 06:17:32;;;;;;;92.03;19.95;;;2.60;99.90;;;;;;5066604;28;20049;-72
2022/01/12 06:19:58;;;;;;;50.75;17.30;;;2.50;99.90;;;;;;5089566;28;20043;-70
2022/01/12 06:22:24;;;;;;;29.23;17.00;;;2.40;99.90;;;;;;5071359;28;20050;-72
2022/01/12 06:24:50;;;;;;;44.63;16.85;;;2.30;99.90;;;;;;5089621;28;20054;-72
2022/01/12 06:27:19;;;;;;;27.25;15.35;;;2.20;99.90;;;;;;5089461;28;20078;-71
2022/01/12 06:32:37;;;;;;;38.45;16.27;;;2.10;99.90;;;;;;5040350;28;20054;-70
2022/01/12 06:35:03;;;;;;;33.67;15.55;;;2.10;99.90;;;;;;5071239;28;20106;-71
2022/01/12 06:37:28;;;;;;;101.43;20.23;;;1.90;99.90;;;;;;5090014;28;20048;-71
2022/01/12 06:39:54;;;;;;;136.55;21.08;;;1.90;99.90;;;;;;5071858;28;20115;-73
2022/01/12 06:42:19;;;;;;;124.07;20.15;;;1.90;99.90;;;;;;5071533;28;20042;-72
2022/01/12 06:44:47;;;;;;;79.82;19.60;;;1.80;99.90;;;;;;5077496;28;20645;-66
2022/01/12 06:47:13;;;;;;;108.68;19.38;;;1.80;99.90;;;;;;5072424;28;20048;-73
2022/01/12 06:49:40;;;;;;;74.28;18.88;;;1.70;99.90;;;;;;5093303;28;20050;-71
2022/01/12 06:52:05;;;;;;;85.68;17.92;;;1.70;99.90;;;;;;5076052;28;20047;-72
2022/01/12 06:54:31;;;;;;;63.22;18.33;;;1.70;99.90;;;;;;5075722;28;20378;-73
2022/01/12 06:56:57;;;;;;;117.93;20.52;;;1.80;99.90;;;;;;5075340;28;20044;-72
2022/01/12 06:59:22;;;;;;;64.15;18.13;;;1.70;99.90;;;;;;5091333;28;20114;-73
2022/01/12 07:01:48;;;;;;;38.63;16.08;;;1.80;99.90;;;;;;5075777;28;20036;-73
2022/01/12 07:04:13;;;;;;;68.90;16.05;;;1.80;99.90;;;;;;5092786;28;20503;-72
2022/01/12 07:06:40;;;;;;;40.53;16.70;;;1.90;99.90;;;;;;5075241;28;20036;-72
2022/01/12 07:09:05;;;;;;;30.45;15.07;;;1.90;99.90;;;;;;5059152;28;20043;-71
2022/01/12 07:11:31;;;;;;;57.38;17.73;;;2.00;99.90;;;;;;5074664;28;20044;-72
2022/01/12 07:13:57;;;;;;;30.30;14.60;;;2.00;99.90;;;;;;5075259;28;20127;-72
2022/01/12 07:16:23;;;;;;;32.65;15.32;;;1.90;99.90;;;;;;5075706;28;20131;-72
2022/01/12 07:18:49;;;;;;;29.70;13.95;;;2.00;99.90;;;;;;5074910;28;20380;-72
2022/01/12 07:21:14;;;;;;;26.38;13.95;;;2.00;99.90;;;;;;5074466;28;20036;-72
2022/01/12 07:23:40;;;;;;;27.15;14.05;;;2.00;99.90;;;;;;5074954;28;20373;-72
2022/01/12 07:26:07;;;;;;;47.30;17.45;;;2.00;99.90;;;;;;5074866;28;20416;-71
2022/01/12 07:28:32;;;;;;;66.07;17.38;;;2.00;99.90;;;;;;5093472;28;20044;-71
2022/01/12 07:30:58;;;;;;;60.95;17.30;;;2.10;99.90;;;;;;5073182;28;20052;-70
2022/01/12 07:33:25;;;;;;;64.25;18.00;;;2.10;99.90;;;;;;5075241;28;20044;-72
2022/01/12 07:35:52;;;;;;;78.65;18.02;;;2.10;99.90;;;;;;5074753;28;20054;-71
2022/01/12 07:38:17;;;;;;;41.42;14.70;;;2.20;99.90;;;;;;5073897;28;20055;-71
2022/01/12 07:40:43;;;;;;;76.07;18.73;;;2.30;99.90;;;;;;5092615;28;20032;-71
2022/01/12 07:43:09;;;;;;;43.33;16.95;;;2.40;99.90;;;;;;5074980;28;20512;-71
2022/01/12 07:45:37;;;;;;;29.27;13.50;;;2.40;99.90;;;;;;5074283;28;20077;-71
2022/01/12 07:48:03;;;;;;;31.55;14.25;;;2.40;99.90;;;;;;5074208;28;20048;-71
2022/01/12 07:50:29;;;;;;;43.25;16.38;;;2.50;99.90;;;;;;5074620;28;20063;-70
2022/01/12 07:52:54;;;;;;;36.20;15.90;;;2.60;99.90;;;;;;5072333;28;20477;-71
2022/01/12 07:55:22;;;;;;;56.00;19.55;;;2.70;99.90;;;;;;5074423;28;20484;-71
2022/01/12 07:57:48;;;;;;;63.90;18.92;;;2.80;99.90;;;;;;5074492;28;20040;-71
2022/01/12 08:00:15;;;;;;;73.88;19.52;;;2.90;99.90;;;;;;5069535;28;20039;-73
2022/01/12 08:02:40;;;;;;;93.47;20.52;;;2.90;99.90;;;;;;5073656;28;20046;-72
2022/01/12 08:05:06;;;;;;;61.33;18.23;;;3.00;99.90;;;;;;5074065;28;20044;-72
2022/01/12 08:07:36;;;;;;;99.38;22.20;;;3.10;99.90;;;;;;5074419;28;20383;-72
2022/01/12 08:10:05;;;;;;;75.88;19.88;;;3.20;99.90;;;;;;5072249;28;20048;-72
2022/01/12 08:12:32;;;;;;;69.38;19.42;;;3.30;99.90;;;;;;5072880;28;20056;-71
2022/01/12 08:14:58;;;;;;;149.00;22.80;;;3.30;99.90;;;;;;5062672;28;20134;-71
2022/01/12 08:17:23;;;;;;;138.90;20.73;;;3.40;99.90;;;;;;5067980;28;20127;-74
2022/01/12 08:19:51;;;;;;;135.30;20.10;;;3.40;99.90;;;;;;5056538;28;20400;-73
2022/01/12 08:22:17;;;;;;;127.35;19.55;;;3.50;99.90;;;;;;5079919;28;20097;-70
2022/01/12 08:24:42;;;;;;;114.75;17.85;;;3.60;99.90;;;;;;5074299;28;20055;-72
2022/01/12 08:27:09;;;;;;;164.52;19.42;;;3.60;99.90;;;;;;5072432;28;20044;-72
2022/01/12 08:29:35;;;;;;;239.35;24.10;;;3.70;99.90;;;;;;5037934;28;20036;-72
2022/01/12 08:32:00;;;;;;;114.57;16.38;;;3.70;99.90;;;;;;5072837;28;20047;-71
2022/01/12 08:34:26;;;;;;;169.05;18.38;;;3.70;99.90;;;;;;5073781;28;20501;-70
2022/01/12 08:36:52;;;;;;;72.00;13.32;;;3.70;99.90;;;;;;5074820;28;20052;-71
2022/01/12 08:39:17;;;;;;;65.47;14.80;;;3.70;99.90;;;;;;5053664;28;20119;-69
2022/01/12 08:41:43;;;;;;;83.68;13.55;;;3.80;99.90;;;;;;5070972;28;20043;-72
2022/01/12 08:44:09;;;;;;;60.60;12.25;;;3.80;99.90;;;;;;5087122;28;20032;-70
2022/01/12 08:46:36;;;;;;;81.85;13.35;;;3.80;99.90;;;;;;5066762;28;20055;-70
2022/01/12 08:49:02;;;;;;;74.45;14.23;;;3.80;99.90;;;;;;5072507;28;20054;-71
2022/01/12 08:51:27;;;;;;;50.45;12.95;;;3.80;99.90;;;;;;5064462;28;20036;-70
2022/01/12 08:53:54;;;;;;;65.63;12.75;;;3.80;99.90;;;;;;5065966;28;20042;-71
2022/01/12 08:56:20;;;;;;;78.80;13.88;;;3.80;99.90;;;;;;5060991;28;20059;-71
2022/01/12 08:58:47;;;;;;;99.25;15.70;;;3.80;99.90;;;;;;5063367;28;20048;-71
2022/01/12 09:01:13;;;;;;;42.97;10.98;;;3.90;99.90;;;;;;5065907;28;20031;-71
2022/01/12 09:03:39;;;;;;;44.22;10.88;;;3.90;99.90;;;;;;5064688;28;20073;-71
2022/01/12 09:06:05;;;;;;;55.60;12.32;;;3.90;99.90;;;;;;5063410;28;20048;-70
2022/01/12 09:08:34;;;;;;;58.80;12.70;;;3.80;99.90;;;;;;5065607;28;20138;-71
2022/01/12 09:10:59;;;;;;;47.13;11.68;;;3.90;99.90;;;;;;5067822;28;20055;-71
2022/01/12 09:13:25;;;;;;;49.97;12.02;;;3.80;99.90;;;;;;5068462;28;20404;-72
2022/01/12 09:15:51;;;;;;;38.67;11.25;;;3.80;99.90;;;;;;5058851;28;20044;-71
2022/01/12 09:18:18;;;;;;;19.42;9.45;;;3.80;99.90;;;;;;5037710;28;20536;-71
2022/01/12 09:20:44;;;;;;;22.85;8.93;;;3.80;99.90;;;;;;5070413;28;20438;-71
2022/01/12 09:23:10;;;;;;;22.60;9.35;;;3.80;99.90;;;;;;5068906;28;20052;-71
2022/01/12 09:25:39;;;;;;;23.92;8.15;;;3.80;99.90;;;;;;5071266;28;20074;-71
2022/01/12 09:28:06;;;;;;;33.17;8.02;;;3.90;99.90;;;;;;5089326;28;20377;-71
2022/01/12 09:30:31;;;;;;;48.30;6.97;;;3.90;99.90;;;;;;5072256;28;20557;-70
2022/01/12 09:32:59;;;;;;;70.65;8.43;;;3.90;99.90;;;;;;5072992;28;20040;-71
2022/01/12 09:35:25;;;;;;;33.00;7.90;;;3.90;99.90;;;;;;5055586;28;20040;-71
2022/01/12 09:37:51;;;;;;;49.30;8.50;;;3.90;99.90;;;;;;5071425;28;20052;-71
2022/01/12 09:40:16;;;;;;;58.97;8.82;;;3.90;99.90;;;;;;5048879;28;20047;-71
2022/01/12 09:42:44;;;;;;;86.78;8.70;;;3.90;99.90;;;;;;5072696;28;20123;-71
2022/01/12 09:45:14;;;;;;;62.22;8.25;;;3.90;99.90;;;;;;5071108;28;20063;-71
2022/01/12 09:47:42;;;;;;;64.72;9.23;;;4.00;99.90;;;;;;5090611;28;20489;-71
2022/01/12 09:50:09;;;;;;;62.53;6.63;;;4.00;99.90;;;;;;5071836;28;20457;-71
2022/01/12 09:52:34;;;;;;;44.72;6.78;;;4.10;99.90;;;;;;5069762;28;20040;-71
2022/01/12 09:55:00;;;;;;;49.47;7.28;;;4.10;99.90;;;;;;5072881;28;20048;-71
2022/01/12 09:57:26;;;;;;;29.73;8.05;;;4.10;99.90;;;;;;5051737;28;20048;-71
2022/01/12 09:59:52;;;;;;;20.42;6.88;;;4.20;99.90;;;;;;5071586;28;20051;-71
2022/01/12 10:02:19;;;;;;;16.67;7.35;;;4.20;99.90;;;;;;5070907;28;20511;-71
2022/01/12 10:04:45;;;;;;;13.68;6.70;;;4.20;99.90;;;;;;5071823;28;20055;-71
2022/01/12 10:07:11;;;;;;;23.20;7.25;;;4.30;99.90;;;;;;5071453;28;20044;-71
2022/01/12 10:09:49;;;;;;;22.88;6.97;;;4.40;99.90;;;;;;5072326;28;20574;-71
2022/01/12 10:12:17;;;;;;;21.35;6.80;;;4.40;99.90;;;;;;5069127;28;20485;-71
2022/01/12 10:14:52;;;;;;;13.05;6.68;;;4.50;99.90;;;;;;5088735;28;20052;-71
2022/01/12 10:17:19;;;;;;;16.92;6.70;;;4.50;99.90;;;;;;5089615;28;20048;-71
2022/01/12 10:19:45;;;;;;;11.55;5.95;;;4.40;99.90;;;;;;5092397;28;20040;-71
2022/01/12 10:22:14;;;;;;;15.13;6.18;;;4.50;99.90;;;;;;5076114;28;20051;-71
2022/01/12 10:24:45;;;;;;;32.08;8.13;;;4.60;99.90;;;;;;5094211;28;20059;-71
2022/01/12 10:27:12;;;;;;;51.28;9.32;;;4.60;99.90;;;;;;5086816;28;20036;-71
2022/01/12 10:29:37;;;;;;;17.77;7.70;;;4.60;99.90;;;;;;5061472;28;20036;-71
2022/01/12 10:32:05;;;;;;;28.80;7.35;;;4.60;99.90;;;;;;5075271;28;20453;-71
2022/01/12 10:34:48;;;;;;;29.15;8.13;;;4.60;99.90;;;;;;5092550;28;20128;-71
2022/01/12 10:37:18;;;;;;;32.47;8.38;;;4.70;99.90;;;;;;5084233;28;20495;-71
2022/01/12 10:39:49;;;;;;;26.13;7.30;;;4.70;99.90;;;;;;5075551;28;20119;-71
2022/01/12 10:42:18;;;;;;;20.15;7.82;;;4.80;99.90;;;;;;5076321;28;20520;-71
2022/01/12 10:44:46;;;;;;;15.77;6.82;;;4.80;99.90;;;;;;5093365;28;20064;-72
2022/01/12 10:47:22;;;;;;;15.98;7.68;;;4.90;99.90;;;;;;5070117;28;20141;-70
2022/01/12 10:49:54;;;;;;;13.23;6.95;;;5.00;99.90;;;;;;5073992;28;20105;-70
2022/01/12 10:52:22;;;;;;;16.40;8.80;;;5.10;99.90;;;;;;5073169;28;20044;-70
2022/01/12 10:54:51;;;;;;;18.67;9.18;;;5.10;99.90;;;;;;5075246;28;20123;-70
2022/01/12 10:57:26;;;;;;;22.50;8.98;;;5.00;99.90;;;;;;5075887;28;20080;-70
2022/01/12 11:00:10;;;;;;;30.63;11.07;;;5.10;99.90;;;;;;5074931;28;20567;-70
2022/01/12 11:02:39;;;;;;;63.90;14.38;;;5.10;99.90;;;;;;5092728;28;20500;-70
2022/01/12 11:05:07;;;;;;;50.92;18.92;;;5.10;99.90;;;;;;5076312;28;20043;-70
2022/01/12 11:07:33;;;;;;;62.97;18.73;;;5.10;99.90;;;;;;5072466;28;20040;-71
2022/01/12 11:10:02;;;;;;;44.20;18.75;;;5.20;99.90;;;;;;5093039;28;20396;-70
2022/01/12 11:12:28;;;;;;;90.88;17.25;;;5.20;99.90;;;;;;5073741;28;20102;-70
2022/01/12 11:14:55;;;;;;;48.03;14.90;;;5.20;99.90;;;;;;5092483;28;20165;-70
2022/01/12 11:17:21;;;;;;;43.85;9.40;;;5.30;99.90;;;;;;5074136;28;20058;-70
2022/01/12 11:20:12;;;;;;;21.17;8.35;;;5.30;99.90;;;;;;5075507;28;20047;-70
2022/01/12 11:22:59;;;;;;;41.08;7.75;;;5.30;99.90;;;;;;5093230;28;20066;-70
2022/01/12 11:25:29;;;;;;;53.75;6.63;;;5.20;99.90;;;;;;5046644;28;20511;-70
2022/01/12 11:28:06;;;;;;;73.28;7.72;;;5.20;99.90;;;;;;5085495;28;20048;-70
2022/01/12 11:30:33;;;;;;;65.50;8.30;;;5.10;99.90;;;;;;5090829;28;20170;-70
2022/01/12 11:33:00;;;;;;;102.70;9.90;;;5.10;99.90;;;;;;5073828;28;20059;-70
2022/01/12 11:35:36;;;;;;;69.47;9.07;;;5.10;99.90;;;;;;5092538;28;20420;-70
2022/01/12 11:38:05;;;;;;;106.82;8.70;;;5.20;99.90;;;;;;5074238;28;20190;-70
2022/01/12 11:40:42;;;;;;;108.50;10.85;;;5.20;99.90;;;;;;5074571;28;20055;-70
2022/01/12 11:43:27;;;;;;;65.05;7.70;;;5.20;99.90;;;;;;5091900;28;20092;-70
2022/01/12 11:46:21;;;;;;;56.08;7.88;;;5.30;99.90;;;;;;5071363;28;20474;-70
2022/01/12 11:48:52;;;;;;;51.70;6.60;;;5.20;99.90;;;;;;5068251;28;20056;-70
2022/01/12 11:51:31;;;;;;;40.97;7.22;;;5.30;99.90;;;;;;5070210;28;20052;-70
2022/01/12 11:54:10;;;;;;;43.75;7.38;;;5.30;99.90;;;;;;5070051;28;20553;-70
2022/01/12 11:56:37;;;;;;;50.75;7.30;;;5.40;99.90;;;;;;5064742;28;20048;-70
2022/01/12 11:59:09;;;;;;;28.40;6.47;;;5.50;99.90;;;;;;5067838;28;20110;-70
2022/01/12 12:01:37;;;;;;;44.40;8.05;;;5.50;99.90;;;;;;5071366;28;20048;-70
2022/01/12 12:04:04;;;;;;;35.55;6.30;;;5.60;99.90;;;;;;5070732;28;20481;-70
2022/01/12 12:06:31;;;;;;;40.72;5.88;;;5.70;99.90;;;;;;5070859;28;20568;-70
2022/01/12 12:09:00;;;;;;;36.65;7.20;;;5.70;99.90;;;;;;5071188;28;20048;-70
2022/01/12 12:11:29;;;;;;;19.80;5.63;;;5.70;99.90;;;;;;5070589;28;20044;-70
2022/01/12 12:14:01;;;;;;;60.08;6.78;;;5.70;99.90;;;;;;5070764;28;20131;-70
2022/01/12 12:16:28;;;;;;;37.28;5.75;;;5.60;99.90;;;;;;5071055;28;20048;-70
2022/01/12 12:18:55;;;;;;;46.58;7.00;;;5.60;99.90;;;;;;5070093;28;20051;-70
2022/01/12 12:21:20;;;;;;;30.27;5.38;;;5.70;99.90;;;;;;5071069;28;20094;-70
2022/01/12 12:23:47;;;;;;;20.27;5.20;;;5.70;99.90;;;;;;5071851;28;20048;-70
2022/01/12 12:26:16;;;;;;;31.65;5.10;;;5.60;99.90;;;;;;5071477;28;20048;-70
2022/01/12 12:28:47;;;;;;;69.65;6.85;;;5.60;99.90;;;;;;5071858;28;20054;-70
2022/01/12 12:31:21;;;;;;;24.90;5.93;;;5.60;99.90;;;;;;5071223;28;20425;-70
2022/01/12 12:33:47;;;;;;;49.88;6.05;;;5.60;99.90;;;;;;5070178;28;20102;-70
2022/01/12 12:36:14;;;;;;;67.13;6.93;;;5.60;99.90;;;;;;5072046;28;20044;-70
2022/01/12 12:38:40;;;;;;;44.40;5.85;;;5.70;99.90;;;;;;5069644;28;20377;-71
2022/01/12 12:41:05;;;;;;;62.00;5.07;;;5.70;99.90;;;;;;5071509;28;20262;-70
2022/01/12 12:43:35;;;;;;;52.45;5.65;;;5.60;99.90;;;;;;5071473;28;20128;-70
2022/01/12 12:46:11;;;;;;;62.72;5.47;;;5.70;99.90;;;;;;5084860;28;20402;-71
2022/01/12 12:48:38;;;;;;;63.65;4.93;;;5.60;99.90;;;;;;5073595;28;20059;-70
2022/01/12 12:51:14;;;;;;;92.43;6.75;;;5.60;99.90;;;;;;5073995;28;20488;-70
2022/01/12 12:53:48;;;;;;;47.83;5.05;;;5.50;99.90;;;;;;5090782;28;20051;-70
2022/01/12 12:56:17;;;;;;;52.22;5.68;;;5.60;99.90;;;;;;5073663;28;20044;-70
2022/01/12 12:58:53;;;;;;;37.70;5.88;;;5.50;99.90;;;;;;5091206;28;20548;-70
2022/01/12 13:01:20;;;;;;;34.50;7.07;;;5.60;99.90;;;;;;5091201;28;20044;-70
2022/01/12 13:03:57;;;;;;;26.17;5.32;;;5.60;99.90;;;;;;5073484;28;20043;-70
2022/01/12 13:06:30;;;;;;;32.97;5.90;;;5.60;99.90;;;;;;5072643;28;20113;-70
2022/01/12 13:09:04;;;;;;;26.13;5.72;;;5.60;99.90;;;;;;5091664;28;20066;-70
2022/01/12 13:11:44;;;;;;;14.73;4.88;;;5.60;99.90;;;;;;5073232;28;20877;-70
2022/01/12 13:14:12;;;;;;;17.25;5.10;;;5.70;99.90;;;;;;5072779;28;20492;-72
2022/01/12 13:16:50;;;;;;;31.70;5.68;;;5.70;99.90;;;;;;5073395;28;20087;-70
2022/01/12 13:22:27;;;;;;;29.10;6.78;;;5.80;99.90;;;;;;5072796;28;20055;-70
2022/01/12 13:24:54;;;;;;;29.73;6.40;;;5.90;99.90;;;;;;5073254;28;20094;-70
2022/01/12 13:27:22;;;;;;;56.55;7.60;;;5.80;99.90;;;;;;5072750;28;20042;-70
2022/01/12 13:29:52;;;;;;;49.50;8.55;;;5.80;99.90;;;;;;5091352;28;20048;-70
2022/01/12 13:32:18;;;;;;;40.40;8.05;;;5.80;99.90;;;;;;5072995;28;20054;-70
2022/01/12 13:34:55;;;;;;;31.17;7.45;;;5.80;99.90;;;;;;5055422;28;20166;-71
2022/01/12 13:37:22;;;;;;;28.67;7.25;;;5.90;99.90;;;;;;5061927;28;20055;-70
2022/01/12 13:40:01;;;;;;;11.30;6.00;;;5.90;99.90;;;;;;5072884;28;20048;-70
2022/01/12 13:42:27;;;;;;;19.92;6.10;;;5.90;99.90;;;;;;5072581;28;20044;-70
2022/01/12 13:45:04;;;;;;;25.88;6.32;;;5.90;99.90;;;;;;5072598;28;20062;-70
2022/01/12 13:47:34;;;;;;;18.42;6.60;;;5.90;99.90;;;;;;5091087;28;20489;-70
2022/01/12 13:50:09;;;;;;;21.92;7.00;;;5.80;99.90;;;;;;5090029;28;20072;-71
2022/01/12 13:52:36;;;;;;;29.60;6.53;;;5.80;99.90;;;;;;5077001;28;20070;-71
2022/01/12 13:55:11;;;;;;;16.27;5.97;;;5.80;99.90;;;;;;5079163;28;20028;-71
2022/01/12 13:57:37;;;;;;;12.75;5.60;;;5.80;99.90;;;;;;5062501;28;20066;-71
2022/01/12 14:00:05;;;;;;;27.65;5.82;;;5.80;99.90;;;;;;5079498;28;20054;-70
2022/01/12 14:02:31;;;;;;;22.33;5.80;;;5.70;99.90;;;;;;5079473;28;20059;-70
2022/01/12 14:05:08;;;;;;;33.85;6.32;;;5.80;99.90;;;;;;5096848;28;20040;-71
2022/01/12 14:07:39;;;;;;;31.33;8.10;;;5.70;99.90;;;;;;5079422;28;20052;-71
2022/01/12 14:10:06;;;;;;;42.90;9.82;;;5.70;99.90;;;;;;5078686;28;20035;-70
2022/01/12 14:12:33;;;;;;;25.98;8.25;;;5.70;99.90;;;;;;5079120;28;20040;-69